createdAt,value
2022-09-29T00:01:13.466Z,67.01
2022-09-29T00:03:40.598Z,67.07
2022-09-29T00:06:17.707Z,66.50
2022-09-29T00:08:45.863Z,67.79
2022-09-29T00:11:19.857Z,66.66
2022-09-29T00:13:47.808Z,66.92
2022-09-29T00:16:15.442Z,66.83
2022-09-29T00:18:42.816Z,67.12
2022-09-29T00:21:17.500Z,66.80
2022-09-29T00:23:44.564Z,66.25
2022-09-29T00:26:21.976Z,65.40
2022-09-29T00:28:56.893Z,66.29
2022-09-29T00:31:26.326Z,67.88
2022-09-29T00:33:53.767Z,68.83
2022-09-29T00:36:23.153Z,68.22
2022-09-29T00:38:54.835Z,68.24
2022-09-29T00:41:32.661Z,67.93
2022-09-29T00:44:07.184Z,68.59
2022-09-29T00:46:48.819Z,68.32
2022-09-29T00:49:51.871Z,68.61
2022-09-29T00:52:34.371Z,69.30
2022-09-29T00:55:06.337Z,67.28
2022-09-29T00:57:48.508Z,68.39
2022-09-29T01:00:16.946Z,67.50
2022-09-29T01:03:12.289Z,67.38
2022-09-29T01:05:46.565Z,67.26
2022-09-29T01:08:42.247Z,66.60
2022-09-29T01:11:12.627Z,67.25
2022-09-29T01:13:41.773Z,66.80
2022-09-29T01:16:09.286Z,67.24
2022-09-29T01:18:36.504Z,68.25
2022-09-29T01:21:57.183Z,66.51
2022-09-29T01:24:42.238Z,67.10
2022-09-29T01:27:54.655Z,68.09
2022-09-29T01:30:49.753Z,66.54
2022-09-29T01:33:19.625Z,68.02
2022-09-29T01:36:17.546Z,66.58
2022-09-29T01:39:32.545Z,66.98
2022-09-29T01:42:20.758Z,67.63
2022-09-29T01:45:20.758Z,66.73
2022-09-29T01:47:59.150Z,67.97
2022-09-29T01:50:50.712Z,67.31
2022-09-29T01:53:35.355Z,67.08
2022-09-29T01:56:09.510Z,67.02
2022-09-29T01:59:05.563Z,66.67
2022-09-29T02:01:41.193Z,66.89
2022-09-29T02:04:23.385Z,66.29
2022-09-29T02:06:58.591Z,66.68
2022-09-29T02:09:35.341Z,66.64
2022-09-29T02:12:04.618Z,67.16
2022-09-29T02:14:41.182Z,66.02
2022-09-29T02:17:19.585Z,67.28
2022-09-29T02:19:49.792Z,67.81
2022-09-29T02:22:22.061Z,66.63
2022-09-29T02:24:52.660Z,66.27
2022-09-29T02:27:20.743Z,67.31
2022-09-29T02:29:48.416Z,69.21
2022-09-29T02:32:15.611Z,68.63
2022-09-29T02:34:46.851Z,69.27
2022-09-29T02:37:41.845Z,67.83
2022-09-29T02:40:51.289Z,68.02
2022-09-29T02:43:56.502Z,67.46
2022-09-29T02:47:15.033Z,68.42
2022-09-29T02:50:20.702Z,68.12
2022-09-29T02:53:02.669Z,68.41
2022-09-29T02:55:57.313Z,68.99
2022-09-29T02:58:39.299Z,67.98
2022-09-29T03:01:08.157Z,67.96
2022-09-29T03:03:35.470Z,68.44
2022-09-29T03:06:02.830Z,68.51
2022-09-29T03:08:29.930Z,67.74
2022-09-29T03:10:57.225Z,67.79
2022-09-29T03:13:24.376Z,68.09
2022-09-29T03:15:51.679Z,67.86
2022-09-29T03:18:18.941Z,68.17
2022-09-29T03:20:46.033Z,68.19
2022-09-29T03:23:13.121Z,68.02
2022-09-29T03:25:43.217Z,67.66
2022-09-29T03:28:12.681Z,67.21
2022-09-29T03:30:39.893Z,68.08
2022-09-29T03:33:09.154Z,67.53
2022-09-29T03:35:44.375Z,66.99
2022-09-29T03:38:12.134Z,67.23
2022-09-29T03:40:39.356Z,67.75
2022-09-29T03:43:06.491Z,67.99
2022-09-29T03:45:33.731Z,67.46
2022-09-29T03:48:01.111Z,68.23
2022-09-29T03:50:32.774Z,67.84
2022-09-29T03:52:59.903Z,67.41
2022-09-29T03:55:26.995Z,67.98
2022-09-29T03:57:54.143Z,68.55
2022-09-29T04:00:21.185Z,68.26
2022-09-29T04:02:48.307Z,68.02
2022-09-29T04:05:15.974Z,67.34
2022-09-29T04:07:43.001Z,68.43
2022-09-29T04:10:10.153Z,68.11
2022-09-29T04:12:37.244Z,69.73
2022-09-29T04:15:05.195Z,67.64
2022-09-29T04:17:32.314Z,68.85
2022-09-29T04:19:59.484Z,68.66
2022-09-29T04:22:26.562Z,67.84
2022-09-29T04:24:53.649Z,69.25
2022-09-29T04:27:20.765Z,68.21
2022-09-29T04:29:47.823Z,67.28
2022-09-29T04:32:17.567Z,67.15
2022-09-29T04:34:44.798Z,66.58
2022-09-29T04:37:12.213Z,68.06
2022-09-29T04:39:40.674Z,67.93
2022-09-29T04:42:08.216Z,68.00
2022-09-29T04:44:35.290Z,67.73
2022-09-29T04:47:02.270Z,66.53
2022-09-29T04:49:29.543Z,66.29
2022-09-29T04:51:57.059Z,67.14
2022-09-29T04:54:24.198Z,67.59
2022-09-29T04:56:51.542Z,66.96
2022-09-29T04:59:18.719Z,67.42
2022-09-29T05:01:46.063Z,68.22
2022-09-29T05:04:13.791Z,68.29
2022-09-29T05:06:41.166Z,68.12
2022-09-29T05:09:08.931Z,68.81
2022-09-29T05:11:36.266Z,68.58
2022-09-29T05:14:04.150Z,68.94
2022-09-29T05:16:31.912Z,69.13
2022-09-29T05:18:59.217Z,68.73
2022-09-29T05:21:28.521Z,68.32
2022-09-29T05:23:57.207Z,68.88
2022-09-29T05:26:24.410Z,68.29
2022-09-29T05:28:51.475Z,68.74
2022-09-29T05:31:19.137Z,67.75
2022-09-29T05:33:46.474Z,67.50
2022-09-29T05:36:13.982Z,67.58
2022-09-29T05:38:43.645Z,67.51
2022-09-29T05:41:16.296Z,67.05
2022-09-29T05:43:43.324Z,66.77
2022-09-29T05:46:11.315Z,67.41
2022-09-29T05:48:38.807Z,66.79
2022-09-29T05:51:18.293Z,66.26
2022-09-29T05:53:48.165Z,66.99
2022-09-29T05:56:26.970Z,66.14
2022-09-29T05:58:54.903Z,66.52
2022-09-29T06:01:26.114Z,67.47
2022-09-29T06:03:56.828Z,66.45
2022-09-29T06:06:27.008Z,66.13
2022-09-29T06:08:55.470Z,66.56
2022-09-29T06:11:27.646Z,65.32
2022-09-29T06:13:55.542Z,65.68
2022-09-29T06:16:23.698Z,66.95
2022-09-29T06:18:50.873Z,66.76
2022-09-29T06:21:26.119Z,65.31
2022-09-29T06:23:55.811Z,66.36
2022-09-29T06:26:25.134Z,65.10
2022-09-29T06:28:56.369Z,64.36
2022-09-29T06:31:27.259Z,65.28
2022-09-29T06:34:03.742Z,65.34
2022-09-29T06:37:04.580Z,64.01
2022-09-29T06:39:31.913Z,64.32
2022-09-29T06:41:59.973Z,65.32
2022-09-29T06:44:28.521Z,64.54
2022-09-29T06:46:55.969Z,65.15
2022-09-29T06:49:26.698Z,65.03
2022-09-29T06:51:54.695Z,64.29
2022-09-29T06:54:26.982Z,65.04
2022-09-29T06:56:55.259Z,63.57
2022-09-29T06:59:24.995Z,64.22
2022-09-29T07:01:52.515Z,64.89
2022-09-29T07:04:21.618Z,64.57
2022-09-29T07:06:49.617Z,63.67
2022-09-29T07:09:17.011Z,64.36
2022-09-29T07:11:46.884Z,64.36
2022-09-29T07:14:15.603Z,64.97
2022-09-29T07:16:43.408Z,65.35
2022-09-29T07:19:13.475Z,65.35
2022-09-29T07:21:40.705Z,64.95
2022-09-29T07:24:09.140Z,64.96
2022-09-29T07:26:38.689Z,63.50
2022-09-29T07:29:05.715Z,64.70
2022-09-29T07:31:43.023Z,64.26
2022-09-29T07:34:14.886Z,64.91
2022-09-29T07:36:41.914Z,64.70
2022-09-29T07:39:09.070Z,64.25
2022-09-29T07:41:36.168Z,63.66
2022-09-29T07:44:03.480Z,63.94
2022-09-29T07:46:30.577Z,63.55
2022-09-29T07:48:57.679Z,63.43
2022-09-29T07:51:24.669Z,62.30
2022-09-29T07:53:53.987Z,62.39
2022-09-29T07:56:23.110Z,62.58
2022-09-29T07:58:51.437Z,62.63
2022-09-29T08:01:20.107Z,61.99
2022-09-29T08:03:55.849Z,60.80
2022-09-29T08:06:26.299Z,61.02
2022-09-29T08:09:03.424Z,60.63
2022-09-29T08:11:39.107Z,60.99
2022-09-29T08:14:08.146Z,60.50
2022-09-29T08:16:36.695Z,61.47
2022-09-29T08:19:05.942Z,61.72
2022-09-29T08:21:37.328Z,60.28
2022-09-29T08:24:06.728Z,60.24
2022-09-29T08:26:43.281Z,59.85
2022-09-29T08:29:17.265Z,60.42
2022-09-29T08:31:45.900Z,58.91
2022-09-29T08:34:14.103Z,58.53
2022-09-29T08:36:41.759Z,60.05
2022-09-29T08:39:11.280Z,59.24
2022-09-29T08:41:59.711Z,57.78
2022-09-29T08:44:51.276Z,57.14
2022-09-29T08:47:45.909Z,57.49
2022-09-29T08:50:29.751Z,55.88
2022-09-29T08:53:05.756Z,55.40
2022-09-29T08:55:54.056Z,55.76
2022-09-29T08:58:21.440Z,55.76
2022-09-29T09:01:03.530Z,57.27
2022-09-29T09:04:07.920Z,56.04
2022-09-29T09:07:04.390Z,54.45
2022-09-29T09:09:51.765Z,56.59
2022-09-29T09:13:03.146Z,56.68
2022-09-29T09:16:05.120Z,56.96
2022-09-29T09:19:21.217Z,56.96
2022-09-29T09:22:22.888Z,55.30
2022-09-29T09:25:11.149Z,56.24
2022-09-29T09:27:45.393Z,53.16
2022-09-29T09:30:21.303Z,48.94
2022-09-29T09:32:59.769Z,49.86
2022-09-29T09:35:56.810Z,50.39
2022-09-29T09:38:38.154Z,48.15
2022-09-29T09:41:05.401Z,50.63
2022-09-29T09:43:44.502Z,50.41
2022-09-29T09:46:12.711Z,51.28
2022-09-29T09:48:47.918Z,48.60
2022-09-29T09:51:59.829Z,44.63
2022-09-29T09:54:40.425Z,45.70
2022-09-29T09:57:27.547Z,46.77
2022-09-29T10:00:09.509Z,48.01
2022-09-29T10:02:55.504Z,48.40
2022-09-29T10:05:34.277Z,48.43
2022-09-29T10:08:01.962Z,47.96
2022-09-29T10:10:33.002Z,47.46
2022-09-29T10:13:28.664Z,46.29
2022-09-29T10:16:17.676Z,47.83
2022-09-29T10:18:48.788Z,48.57
2022-09-29T10:21:36.590Z,46.96
2022-09-29T10:24:07.355Z,50.58
2022-09-29T10:26:43.477Z,48.81
2022-09-29T10:29:33.547Z,48.51
2022-09-29T10:32:08.200Z,48.54
2022-09-29T10:34:43.185Z,49.29
2022-09-29T10:37:38.243Z,46.74
2022-09-29T10:40:08.186Z,48.31
2022-09-29T10:42:46.192Z,49.61
2022-09-29T10:45:23.613Z,48.83
2022-09-29T10:47:59.507Z,47.98
2022-09-29T10:50:48.187Z,47.57
2022-09-29T10:53:40.280Z,45.76
2022-09-29T10:56:18.309Z,47.06
2022-09-29T10:59:05.929Z,45.95
2022-09-29T11:01:45.738Z,43.88
2022-09-29T11:04:28.603Z,45.53
2022-09-29T11:06:57.535Z,45.13
2022-09-29T11:09:30.692Z,42.60
2022-09-29T11:12:02.223Z,41.97
2022-09-29T11:14:37.156Z,39.98
2022-09-29T11:17:30.438Z,39.60
2022-09-29T11:20:06.890Z,37.88
2022-09-29T11:22:52.810Z,38.07
2022-09-29T11:25:51.614Z,40.56
2022-09-29T11:28:43.395Z,41.43
2022-09-29T11:31:31.330Z,41.80
2022-09-29T11:34:22.486Z,40.84
2022-09-29T11:37:20.949Z,40.46
2022-09-29T11:40:51.231Z,39.96
2022-09-29T11:43:48.032Z,39.16
2022-09-29T11:46:38.792Z,39.13
2022-09-29T11:49:44.055Z,41.14
2022-09-29T11:52:20.185Z,40.70
2022-09-29T11:55:37.271Z,39.86
2022-09-29T11:58:48.472Z,42.11
2022-09-29T12:01:31.279Z,43.20
2022-09-29T12:04:17.220Z,45.82
2022-09-29T12:06:53.666Z,46.21
2022-09-29T12:10:02.514Z,47.66
2022-09-29T12:13:10.109Z,46.75
2022-09-29T12:15:55.683Z,44.55
2022-09-29T12:18:56.919Z,43.71
2022-09-29T12:21:34.774Z,43.07
2022-09-29T12:24:06.263Z,43.97
2022-09-29T12:26:34.912Z,43.70
2022-09-29T12:29:21.172Z,43.83
2022-09-29T12:31:54.150Z,47.36
2022-09-29T12:34:54.333Z,48.80
2022-09-29T12:37:33.497Z,47.83
2022-09-29T12:40:47.754Z,47.03
2022-09-29T12:43:33.247Z,47.03
2022-09-29T12:46:31.399Z,47.49
2022-09-29T12:49:33.381Z,45.51
2022-09-29T12:52:03.175Z,47.35
2022-09-29T12:54:48.461Z,49.74
2022-09-29T12:57:20.577Z,53.46
2022-09-29T13:00:10.223Z,52.33
2022-09-29T13:02:56.823Z,49.57
2022-09-29T13:06:00.754Z,45.93
2022-09-29T13:09:03.745Z,45.40
2022-09-29T13:12:07.807Z,43.94
2022-09-29T13:15:05.778Z,43.14
2022-09-29T13:18:41.894Z,45.13
2022-09-29T13:21:27.879Z,43.54
2022-09-29T13:24:16.487Z,41.23
2022-09-29T13:27:08.320Z,42.53
2022-09-29T13:29:54.658Z,43.76
2022-09-29T13:32:22.020Z,44.52
2022-09-29T13:34:57.145Z,43.31
2022-09-29T13:37:28.422Z,46.40
2022-09-29T13:40:09.098Z,45.48
2022-09-29T13:42:41.292Z,41.68
2022-09-29T13:45:17.290Z,42.22
2022-09-29T13:48:02.546Z,41.97
2022-09-29T13:50:59.526Z,43.99
2022-09-29T13:53:37.656Z,44.34
2022-09-29T13:56:17.822Z,45.69
2022-09-29T13:58:47.693Z,45.99
2022-09-29T14:01:37.996Z,45.40
2022-09-29T14:04:48.277Z,47.21
2022-09-29T14:07:49.877Z,50.29
2022-09-29T14:10:36.442Z,48.58
2022-09-29T14:13:10.612Z,51.95
2022-09-29T14:15:44.053Z,47.84
2022-09-29T14:18:38.497Z,46.84
2022-09-29T14:21:33.346Z,46.84
2022-09-29T14:24:00.979Z,49.13
2022-09-29T14:26:49.657Z,46.69
2022-09-29T14:29:27.523Z,47.56
2022-09-29T14:31:59.066Z,46.05
2022-09-29T14:34:31.212Z,46.32
2022-09-29T14:36:59.693Z,42.67
2022-09-29T14:39:34.469Z,45.96
2022-09-29T14:42:03.634Z,49.42
2022-09-29T14:44:56.612Z,46.10
2022-09-29T14:51:09.160Z,45.10
2022-09-29T14:54:07.574Z,45.44
2022-09-29T14:57:04.224Z,46.57
2022-09-29T15:00:02.142Z,46.10
2022-09-29T15:02:34.370Z,48.45
2022-09-29T15:05:32.797Z,48.94
2022-09-29T15:08:23.349Z,49.53
2022-09-29T15:10:50.529Z,52.77
2022-09-29T15:13:32.343Z,49.20
2022-09-29T15:16:21.740Z,45.16
2022-09-29T15:19:26.904Z,45.09
2022-09-29T15:22:41.948Z,47.58
2022-09-29T15:25:45.157Z,48.25
2022-09-29T15:28:25.897Z,50.42
2022-09-29T15:30:54.795Z,54.14
2022-09-29T15:33:26.462Z,52.13
2022-09-29T15:36:00.117Z,48.88
2022-09-29T15:38:41.909Z,51.87
2022-09-29T15:41:13.107Z,52.36
2022-09-29T15:43:58.747Z,51.17
2022-09-29T15:46:48.984Z,52.01
2022-09-29T15:49:22.913Z,54.62
2022-09-29T15:52:13.433Z,55.00
2022-09-29T15:54:47.673Z,56.84
2022-09-29T15:57:48.058Z,53.55
2022-09-29T16:00:38.377Z,52.47
2022-09-29T16:03:29.973Z,52.87
2022-09-29T16:06:07.586Z,52.89
2022-09-29T16:08:44.362Z,53.62
2022-09-29T16:11:31.091Z,53.29
2022-09-29T16:14:33.703Z,52.31
2022-09-29T16:17:00.841Z,54.30
2022-09-29T16:19:32.041Z,55.33
2022-09-29T16:22:03.093Z,54.50
2022-09-29T16:24:37.600Z,54.20
2022-09-29T16:27:05.121Z,55.35
2022-09-29T16:29:32.859Z,55.86
2022-09-29T16:32:35.246Z,55.38
2022-09-29T16:35:43.140Z,55.20
2022-09-29T16:38:36.314Z,54.88
2022-09-29T16:41:27.771Z,55.39
2022-09-29T16:44:22.805Z,55.30
2022-09-29T16:47:09.911Z,55.48
2022-09-29T16:49:59.056Z,56.49
2022-09-29T16:52:48.325Z,56.25
2022-09-29T16:55:27.684Z,57.44
2022-09-29T16:58:08.380Z,58.79
2022-09-29T17:00:36.641Z,59.78
2022-09-29T17:03:05.742Z,59.76
2022-09-29T17:05:47.438Z,57.98
2022-09-29T17:08:22.953Z,57.54
2022-09-29T17:10:52.440Z,57.81
2022-09-29T17:13:21.292Z,59.68
2022-09-29T17:15:51.943Z,58.43
2022-09-29T17:18:21.113Z,58.38
2022-09-29T17:20:48.173Z,59.09
2022-09-29T17:23:15.246Z,59.55
2022-09-29T17:25:45.857Z,59.09
2022-09-29T17:28:26.092Z,57.25
2022-09-29T17:30:55.691Z,60.66
2022-09-29T17:33:23.693Z,59.96
2022-09-29T17:35:55.703Z,59.84
2022-09-29T17:38:24.185Z,59.84
2022-09-29T17:41:06.868Z,58.68
2022-09-29T17:43:34.134Z,59.98
2022-09-29T17:46:04.491Z,60.89
2022-09-29T17:48:34.667Z,61.04
2022-09-29T17:51:04.098Z,60.73
2022-09-29T17:53:31.382Z,60.90
2022-09-29T17:55:58.670Z,61.11
2022-09-29T17:58:28.139Z,61.83
2022-09-29T18:01:00.109Z,61.18
2022-09-29T18:03:29.312Z,61.16
2022-09-29T18:05:58.206Z,61.80
2022-09-29T18:08:27.737Z,62.30
2022-09-29T18:11:02.342Z,61.63
2022-09-29T18:13:32.047Z,62.60
2022-09-29T18:16:00.391Z,64.04
2022-09-29T18:18:27.797Z,64.60
2022-09-29T18:20:54.851Z,64.48
2022-09-29T18:23:25.987Z,63.80
2022-09-29T18:25:53.698Z,63.50
2022-09-29T18:28:21.268Z,63.50
2022-09-29T18:30:53.999Z,63.43
2022-09-29T18:33:23.916Z,63.34
2022-09-29T18:35:55.230Z,63.30
2022-09-29T18:38:22.806Z,63.08
2022-09-29T18:40:56.124Z,63.51
2022-09-29T18:43:25.922Z,63.32
2022-09-29T18:45:58.249Z,63.12
2022-09-29T18:48:25.292Z,61.31
2022-09-29T18:50:56.867Z,63.09
2022-09-29T18:53:25.115Z,63.49
2022-09-29T18:55:59.158Z,63.17
2022-09-29T18:58:26.199Z,63.21
2022-09-29T19:00:55.616Z,64.34
2022-09-29T19:03:30.208Z,64.99
2022-09-29T19:05:57.325Z,64.73
2022-09-29T19:08:27.025Z,64.33
2022-09-29T19:11:00.708Z,64.03
2022-09-29T19:13:30.369Z,64.32
2022-09-29T19:15:59.393Z,64.10
2022-09-29T19:18:31.779Z,64.66
2022-09-29T19:21:01.136Z,62.51
2022-09-29T19:23:28.583Z,64.02
2022-09-29T19:25:58.711Z,65.16
2022-09-29T19:28:28.304Z,64.73
2022-09-29T19:31:03.666Z,64.80
2022-09-29T19:33:30.839Z,65.05
2022-09-29T19:36:04.795Z,64.46
2022-09-29T19:38:32.371Z,65.00
2022-09-29T19:40:59.911Z,63.67
2022-09-29T19:43:27.370Z,65.85
2022-09-29T19:45:54.529Z,65.64
2022-09-29T19:48:23.241Z,65.85
2022-09-29T19:51:17.504Z,64.79
2022-09-29T19:53:48.687Z,64.67
2022-09-29T19:56:17.052Z,63.46
2022-09-29T19:58:44.119Z,64.46
2022-09-29T20:01:17.234Z,64.44
2022-09-29T20:03:48.043Z,64.44
2022-09-29T20:06:15.134Z,64.09
2022-09-29T20:08:42.294Z,63.63
2022-09-29T20:11:11.756Z,63.82
2022-09-29T20:13:39.574Z,64.43
2022-09-29T20:16:07.878Z,66.55
2022-09-29T20:18:37.532Z,66.28
2022-09-29T20:21:12.877Z,65.12
2022-09-29T20:23:42.394Z,65.95
2022-09-29T20:26:09.904Z,65.82
2022-09-29T20:28:38.278Z,65.95
2022-09-29T20:31:08.298Z,66.00
2022-09-29T20:33:38.837Z,65.71
2022-09-29T20:36:06.765Z,65.23
2022-09-29T20:38:39.642Z,64.83
2022-09-29T20:41:07.714Z,64.90
2022-09-29T20:43:34.871Z,65.29
2022-09-29T20:46:10.162Z,64.64
2022-09-29T20:48:39.493Z,64.70
2022-09-29T20:51:16.203Z,64.32
2022-09-29T20:53:50.964Z,64.71
2022-09-29T20:56:19.198Z,64.39
2022-09-29T20:58:50.154Z,64.49
2022-09-29T21:01:26.026Z,64.41
2022-09-29T21:04:06.788Z,64.31
2022-09-29T21:06:46.184Z,64.44
2022-09-29T21:09:21.964Z,64.53
2022-09-29T21:11:51.562Z,65.08
2022-09-29T21:14:26.732Z,65.16
2022-09-29T21:16:54.599Z,66.91
2022-09-29T21:19:26.715Z,67.47
2022-09-29T21:21:55.131Z,68.10
2022-09-29T21:24:22.307Z,67.65
2022-09-29T21:26:51.839Z,66.80
2022-09-29T21:29:19.824Z,66.52
2022-09-29T21:31:47.276Z,65.39
2022-09-29T21:34:17.582Z,65.44
2022-09-29T21:36:44.802Z,65.22
2022-09-29T21:39:14.562Z,64.11
2022-09-29T21:41:43.667Z,64.63
2022-09-29T21:44:18.132Z,64.50
2022-09-29T21:46:47.982Z,65.26
2022-09-29T21:49:16.711Z,64.30
2022-09-29T21:51:48.481Z,64.53
2022-09-29T21:54:25.390Z,64.33
2022-09-29T21:56:55.648Z,64.85
2022-09-29T21:59:23.704Z,63.76
2022-09-29T22:01:52.411Z,63.18
2022-09-29T22:04:20.585Z,64.25
2022-09-29T22:06:47.817Z,65.64
2022-09-29T22:09:21.463Z,64.44
2022-09-29T22:11:50.673Z,64.89
2022-09-29T22:14:18.411Z,65.72
2022-09-29T22:16:45.712Z,66.18
2022-09-29T22:19:29.222Z,65.31
2022-09-29T22:21:56.424Z,64.94
2022-09-29T22:24:24.545Z,64.34
2022-09-29T22:26:51.826Z,65.29
2022-09-29T22:29:19.702Z,65.24
2022-09-29T22:31:47.401Z,64.91
2022-09-29T22:34:14.672Z,64.30
2022-09-29T22:36:42.070Z,63.89
2022-09-29T22:39:13.284Z,63.69
2022-09-29T22:41:43.180Z,62.75
2022-09-29T22:44:10.826Z,63.75
2022-09-29T22:46:38.065Z,63.97
2022-09-29T22:49:05.511Z,63.02
2022-09-29T22:51:32.821Z,63.32
2022-09-29T22:54:02.422Z,63.31
2022-09-29T22:56:31.517Z,63.49
2022-09-29T22:59:04.465Z,63.62
2022-09-29T23:01:34.703Z,64.08
2022-09-29T23:04:04.065Z,64.29
2022-09-29T23:06:32.488Z,64.39
2022-09-29T23:08:59.916Z,64.63
2022-09-29T23:11:27.019Z,64.83
2022-09-29T23:13:54.074Z,64.61
2022-09-29T23:16:25.846Z,64.43
2022-09-29T23:19:00.098Z,64.35
2022-09-29T23:21:29.717Z,63.40
2022-09-29T23:24:00.008Z,63.97
2022-09-29T23:26:31.414Z,64.46
2022-09-29T23:29:01.282Z,65.67
2022-09-29T23:31:28.716Z,64.20
2022-09-29T23:33:59.002Z,63.80
2022-09-29T23:36:29.428Z,65.19
2022-09-29T23:39:14.191Z,64.71
2022-09-29T23:41:48.248Z,63.62
2022-09-29T23:44:21.519Z,63.74
2022-09-29T23:46:49.563Z,63.65
2022-09-29T23:49:24.381Z,62.85
2022-09-29T23:51:59.239Z,63.01
2022-09-29T23:54:28.361Z,63.69
2022-09-29T23:56:57.092Z,63.81
2022-09-29T23:59:24.822Z,63.37
